sensor_id;sensor_type;location;lat;lon;timestamp;P1;durP1;ratioP1;P2;durP2;ratioP2
56373;SDS011;58212;47.034;7.376;2023-07-20T00:00:16;3.13;;;2.10;;
56373;SDS011;58212;47.034;7.376;2023-07-20T00:02:43;2.90;;;2.30;;
56373;SDS011;58212;47.034;7.376;2023-07-20T00:05:10;4.07;;;2.15;;
56373;SDS011;58212;47.034;7.376;2023-07-20T00:07:37;4.10;;;2.20;;
56373;SDS011;58212;47.034;7.376;2023-07-20T00:10:04;4.47;;;2.10;;
56373;SDS011;58212;47.034;7.376;2023-07-20T00:12:31;3.72;;;1.85;;
56373;SDS011;58212;47.034;7.376;2023-07-20T00:14:59;3.95;;;2.20;;
56373;SDS011;58212;47.034;7.376;2023-07-20T00:17:26;5.05;;;2.03;;
56373;SDS011;58212;47.034;7.376;2023-07-20T00:19:52;2.45;;;1.70;;
56373;SDS011;58212;47.034;7.376;2023-07-20T00:22:19;2.85;;;1.90;;
56373;SDS011;58212;47.034;7.376;2023-07-20T00:24:46;2.15;;;1.75;;
56373;SDS011;58212;47.034;7.376;2023-07-20T00:27:12;5.93;;;1.73;;
56373;SDS011;58212;47.034;7.376;2023-07-20T00:29:39;2.47;;;1.80;;
56373;SDS011;58212;47.034;7.376;2023-07-20T00:32:07;4.57;;;1.70;;
56373;SDS011;58212;47.034;7.376;2023-07-20T00:34:34;2.45;;;1.92;;
56373;SDS011;58212;47.034;7.376;2023-07-20T00:37:00;2.42;;;1.35;;
56373;SDS011;58212;47.034;7.376;2023-07-20T00:39:27;1.95;;;1.33;;
56373;SDS011;58212;47.034;7.376;2023-07-20T00:41:54;3.85;;;1.63;;
56373;SDS011;58212;47.034;7.376;2023-07-20T00:44:20;3.70;;;1.40;;
56373;SDS011;58212;47.034;7.376;2023-07-20T00:46:47;2.67;;;1.38;;
56373;SDS011;58212;47.034;7.376;2023-07-20T00:49:15;1.75;;;1.58;;
56373;SDS011;58212;47.034;7.376;2023-07-20T00:51:46;2.10;;;1.27;;
56373;SDS011;58212;47.034;7.376;2023-07-20T00:54:15;2.78;;;1.77;;
56373;SDS011;58212;47.034;7.376;2023-07-20T00:56:42;1.35;;;1.25;;
56373;SDS011;58212;47.034;7.376;2023-07-20T00:59:12;2.20;;;1.40;;
56373;SDS011;58212;47.034;7.376;2023-07-20T01:01:39;5.07;;;1.40;;
56373;SDS011;58212;47.034;7.376;2023-07-20T01:04:06;3.10;;;1.42;;
56373;SDS011;58212;47.034;7.376;2023-07-20T01:06:36;2.53;;;1.42;;
56373;SDS011;58212;47.034;7.376;2023-07-20T01:09:13;3.05;;;1.23;;
56373;SDS011;58212;47.034;7.376;2023-07-20T01:11:47;3.60;;;1.30;;
56373;SDS011;58212;47.034;7.376;2023-07-20T01:14:20;1.50;;;1.35;;
56373;SDS011;58212;47.034;7.376;2023-07-20T01:16:50;1.67;;;1.27;;
56373;SDS011;58212;47.034;7.376;2023-07-20T01:19:18;3.58;;;1.27;;
56373;SDS011;58212;47.034;7.376;2023-07-20T01:21:48;2.42;;;1.13;;
56373;SDS011;58212;47.034;7.376;2023-07-20T01:24:26;4.15;;;1.30;;
56373;SDS011;58212;47.034;7.376;2023-07-20T01:27:18;1.58;;;1.17;;
56373;SDS011;58212;47.034;7.376;2023-07-20T01:30:03;2.20;;;1.20;;
56373;SDS011;58212;47.034;7.376;2023-07-20T01:32:42;3.33;;;1.42;;
56373;SDS011;58212;47.034;7.376;2023-07-20T01:35:11;1.40;;;1.20;;
56373;SDS011;58212;47.034;7.376;2023-07-20T01:37:40;3.92;;;1.40;;
56373;SDS011;58212;47.034;7.376;2023-07-20T01:40:09;2.70;;;1.33;;
56373;SDS011;58212;47.034;7.376;2023-07-20T01:42:36;2.90;;;1.33;;
56373;SDS011;58212;47.034;7.376;2023-07-20T01:45:03;1.50;;;1.20;;
56373;SDS011;58212;47.034;7.376;2023-07-20T01:47:30;1.80;;;1.10;;
56373;SDS011;58212;47.034;7.376;2023-07-20T01:49:58;3.20;;;1.25;;
56373;SDS011;58212;47.034;7.376;2023-07-20T01:52:25;3.13;;;1.23;;
56373;SDS011;58212;47.034;7.376;2023-07-20T01:54:52;3.10;;;1.60;;
56373;SDS011;58212;47.034;7.376;2023-07-20T01:57:18;1.65;;;1.33;;
56373;SDS011;58212;47.034;7.376;2023-07-20T01:59:46;4.20;;;1.40;;
56373;SDS011;58212;47.034;7.376;2023-07-20T02:02:12;2.80;;;0.98;;
56373;SDS011;58212;47.034;7.376;2023-07-20T02:04:39;3.30;;;1.20;;
56373;SDS011;58212;47.034;7.376;2023-07-20T02:07:07;1.92;;;1.00;;
56373;SDS011;58212;47.034;7.376;2023-07-20T02:09:34;2.85;;;1.40;;
56373;SDS011;58212;47.034;7.376;2023-07-20T02:12:00;2.00;;;1.15;;
56373;SDS011;58212;47.034;7.376;2023-07-20T02:14:27;2.08;;;1.20;;
56373;SDS011;58212;47.034;7.376;2023-07-20T02:16:55;1.88;;;1.20;;
56373;SDS011;58212;47.034;7.376;2023-07-20T02:19:27;2.22;;;1.00;;
56373;SDS011;58212;47.034;7.376;2023-07-20T02:21:53;1.83;;;1.10;;
56373;SDS011;58212;47.034;7.376;2023-07-20T02:24:21;2.60;;;1.10;;
56373;SDS011;58212;47.034;7.376;2023-07-20T02:26:48;1.58;;;1.10;;
56373;SDS011;58212;47.034;7.376;2023-07-20T02:29:15;2.15;;;1.00;;
56373;SDS011;58212;47.034;7.376;2023-07-20T02:31:42;2.80;;;1.40;;
56373;SDS011;58212;47.034;7.376;2023-07-20T02:34:08;2.30;;;1.23;;
56373;SDS011;58212;47.034;7.376;2023-07-20T02:36:35;3.42;;;1.20;;
56373;SDS011;58212;47.034;7.376;2023-07-20T02:39:02;2.15;;;1.10;;
56373;SDS011;58212;47.034;7.376;2023-07-20T02:41:32;1.73;;;1.30;;
56373;SDS011;58212;47.034;7.376;2023-07-20T02:43:59;2.65;;;1.42;;
56373;SDS011;58212;47.034;7.376;2023-07-20T02:46:26;3.55;;;1.40;;
56373;SDS011;58212;47.034;7.376;2023-07-20T02:48:55;3.22;;;1.30;;
56373;SDS011;58212;47.034;7.376;2023-07-20T02:51:21;2.75;;;1.30;;
56373;SDS011;58212;47.034;7.376;2023-07-20T02:53:48;2.45;;;1.20;;
56373;SDS011;58212;47.034;7.376;2023-07-20T02:56:15;1.40;;;1.10;;
56373;SDS011;58212;47.034;7.376;2023-07-20T02:58:44;2.42;;;1.15;;
56373;SDS011;58212;47.034;7.376;2023-07-20T03:01:11;4.20;;;1.20;;
56373;SDS011;58212;47.034;7.376;2023-07-20T03:03:40;3.92;;;1.25;;
56373;SDS011;58212;47.034;7.376;2023-07-20T03:06:11;2.67;;;1.00;;
56373;SDS011;58212;47.034;7.376;2023-07-20T03:08:37;1.70;;;1.08;;
56373;SDS011;58212;47.034;7.376;2023-07-20T03:11:05;2.15;;;1.27;;
56373;SDS011;58212;47.034;7.376;2023-07-20T03:13:32;1.42;;;1.17;;
56373;SDS011;58212;47.034;7.376;2023-07-20T03:16:00;2.78;;;1.13;;
56373;SDS011;58212;47.034;7.376;2023-07-20T03:18:28;4.00;;;1.00;;
56373;SDS011;58212;47.034;7.376;2023-07-20T03:20:55;2.60;;;1.20;;
56373;SDS011;58212;47.034;7.376;2023-07-20T03:23:21;2.78;;;1.20;;
56373;SDS011;58212;47.034;7.376;2023-07-20T03:25:48;2.08;;;1.00;;
56373;SDS011;58212;47.034;7.376;2023-07-20T03:28:15;6.18;;;1.30;;
56373;SDS011;58212;47.034;7.376;2023-07-20T03:30:42;1.35;;;1.08;;
56373;SDS011;58212;47.034;7.376;2023-07-20T03:33:10;2.50;;;1.42;;
56373;SDS011;58212;47.034;7.376;2023-07-20T03:35:36;2.05;;;1.05;;
56373;SDS011;58212;47.034;7.376;2023-07-20T03:38:05;1.80;;;1.10;;
56373;SDS011;58212;47.034;7.376;2023-07-20T03:40:32;3.00;;;1.27;;
56373;SDS011;58212;47.034;7.376;2023-07-20T03:42:59;1.85;;;1.10;;
56373;SDS011;58212;47.034;7.376;2023-07-20T03:45:26;1.48;;;1.02;;
56373;SDS011;58212;47.034;7.376;2023-07-20T03:47:53;5.22;;;1.23;;
56373;SDS011;58212;47.034;7.376;2023-07-20T03:50:21;2.05;;;1.17;;
56373;SDS011;58212;47.034;7.376;2023-07-20T03:52:47;1.80;;;1.30;;
56373;SDS011;58212;47.034;7.376;2023-07-20T03:55:14;1.20;;;1.02;;
56373;SDS011;58212;47.034;7.376;2023-07-20T03:57:41;3.50;;;1.25;;
56373;SDS011;58212;47.034;7.376;2023-07-20T04:00:08;1.73;;;1.20;;
56373;SDS011;58212;47.034;7.376;2023-07-20T04:02:40;1.73;;;1.05;;
56373;SDS011;58212;47.034;7.376;2023-07-20T04:05:07;2.58;;;1.40;;
56373;SDS011;58212;47.034;7.376;2023-07-20T04:07:35;2.35;;;1.38;;
56373;SDS011;58212;47.034;7.376;2023-07-20T04:10:02;1.63;;;1.10;;
56373;SDS011;58212;47.034;7.376;2023-07-20T04:12:29;3.25;;;1.42;;
56373;SDS011;58212;47.034;7.376;2023-07-20T04:14:55;2.03;;;1.23;;
56373;SDS011;58212;47.034;7.376;2023-07-20T04:17:22;1.30;;;1.00;;
56373;SDS011;58212;47.034;7.376;2023-07-20T04:19:49;3.33;;;1.25;;
56373;SDS011;58212;47.034;7.376;2023-07-20T04:22:16;2.60;;;1.10;;
56373;SDS011;58212;47.034;7.376;2023-07-20T04:24:44;1.77;;;1.08;;
56373;SDS011;58212;47.034;7.376;2023-07-20T04:27:10;2.22;;;1.00;;
56373;SDS011;58212;47.034;7.376;2023-07-20T04:29:37;2.13;;;1.25;;
56373;SDS011;58212;47.034;7.376;2023-07-20T04:32:04;2.25;;;1.17;;
56373;SDS011;58212;47.034;7.376;2023-07-20T04:34:32;2.50;;;1.20;;
56373;SDS011;58212;47.034;7.376;2023-07-20T04:37:03;1.98;;;1.00;;
56373;SDS011;58212;47.034;7.376;2023-07-20T04:39:30;2.17;;;1.23;;
56373;SDS011;58212;47.034;7.376;2023-07-20T04:42:01;2.10;;;1.13;;
56373;SDS011;58212;47.034;7.376;2023-07-20T04:44:28;2.55;;;1.10;;
56373;SDS011;58212;47.034;7.376;2023-07-20T04:46:55;1.92;;;1.20;;
56373;SDS011;58212;47.034;7.376;2023-07-20T04:49:21;2.80;;;1.20;;
56373;SDS011;58212;47.034;7.376;2023-07-20T04:51:48;1.92;;;1.17;;
56373;SDS011;58212;47.034;7.376;2023-07-20T04:54:16;2.72;;;1.00;;
56373;SDS011;58212;47.034;7.376;2023-07-20T04:56:43;2.25;;;1.00;;
56373;SDS011;58212;47.034;7.376;2023-07-20T04:59:13;1.35;;;1.23;;
56373;SDS011;58212;47.034;7.376;2023-07-20T05:01:39;3.40;;;1.20;;
56373;SDS011;58212;47.034;7.376;2023-07-20T05:04:06;2.20;;;1.08;;
56373;SDS011;58212;47.034;7.376;2023-07-20T05:06:33;3.40;;;1.20;;
56373;SDS011;58212;47.034;7.376;2023-07-20T05:09:00;2.65;;;1.15;;
56373;SDS011;58212;47.034;7.376;2023-07-20T05:11:27;3.63;;;1.50;;
56373;SDS011;58212;47.034;7.376;2023-07-20T05:13:53;2.45;;;1.30;;
56373;SDS011;58212;47.034;7.376;2023-07-20T05:16:21;1.67;;;1.20;;
56373;SDS011;58212;47.034;7.376;2023-07-20T05:18:48;1.73;;;0.77;;
56373;SDS011;58212;47.034;7.376;2023-07-20T05:21:15;2.15;;;0.90;;
56373;SDS011;58212;47.034;7.376;2023-07-20T05:23:42;2.17;;;1.50;;
56373;SDS011;58212;47.034;7.376;2023-07-20T05:26:11;1.13;;;0.88;;
56373;SDS011;58212;47.034;7.376;2023-07-20T05:28:38;1.98;;;1.30;;
56373;SDS011;58212;47.034;7.376;2023-07-20T05:31:05;8.68;;;2.97;;
56373;SDS011;58212;47.034;7.376;2023-07-20T05:33:33;5.45;;;1.50;;
56373;SDS011;58212;47.034;7.376;2023-07-20T05:36:00;2.75;;;1.55;;
56373;SDS011;58212;47.034;7.376;2023-07-20T05:38:27;2.08;;;1.63;;
56373;SDS011;58212;47.034;7.376;2023-07-20T05:40:58;3.83;;;1.80;;
56373;SDS011;58212;47.034;7.376;2023-07-20T05:43:26;3.80;;;1.75;;
56373;SDS011;58212;47.034;7.376;2023-07-20T05:45:52;3.83;;;1.70;;
56373;SDS011;58212;47.034;7.376;2023-07-20T05:48:19;2.00;;;1.30;;
56373;SDS011;58212;47.034;7.376;2023-07-20T05:50:47;3.17;;;1.70;;
56373;SDS011;58212;47.034;7.376;2023-07-20T05:53:13;3.60;;;1.58;;
56373;SDS011;58212;47.034;7.376;2023-07-20T05:55:40;2.53;;;1.33;;
56373;SDS011;58212;47.034;7.376;2023-07-20T05:58:07;2.08;;;1.40;;
56373;SDS011;58212;47.034;7.376;2023-07-20T06:00:36;5.10;;;2.00;;
56373;SDS011;58212;47.034;7.376;2023-07-20T06:03:02;2.22;;;2.03;;
56373;SDS011;58212;47.034;7.376;2023-07-20T06:05:29;2.72;;;2.10;;
56373;SDS011;58212;47.034;7.376;2023-07-20T06:07:57;4.38;;;2.10;;
56373;SDS011;58212;47.034;7.376;2023-07-20T06:10:25;5.28;;;2.50;;
56373;SDS011;58212;47.034;7.376;2023-07-20T06:12:52;2.75;;;2.50;;
56373;SDS011;58212;47.034;7.376;2023-07-20T06:15:25;4.88;;;2.78;;
56373;SDS011;58212;47.034;7.376;2023-07-20T06:17:53;3.88;;;2.72;;
56373;SDS011;58212;47.034;7.376;2023-07-20T06:20:21;3.97;;;2.97;;
56373;SDS011;58212;47.034;7.376;2023-07-20T06:22:48;4.00;;;2.65;;
56373;SDS011;58212;47.034;7.376;2023-07-20T06:25:16;4.10;;;2.70;;
56373;SDS011;58212;47.034;7.376;2023-07-20T06:27:43;5.05;;;2.88;;
56373;SDS011;58212;47.034;7.376;2023-07-20T06:30:10;4.28;;;2.92;;
56373;SDS011;58212;47.034;7.376;2023-07-20T06:32:37;4.93;;;2.70;;
56373;SDS011;58212;47.034;7.376;2023-07-20T06:35:04;4.45;;;2.40;;
56373;SDS011;58212;47.034;7.376;2023-07-20T06:37:32;4.45;;;2.38;;
56373;SDS011;58212;47.034;7.376;2023-07-20T06:39:59;3.55;;;2.47;;
56373;SDS011;58212;47.034;7.376;2023-07-20T06:42:27;3.55;;;2.20;;
56373;SDS011;58212;47.034;7.376;2023-07-20T06:44:53;4.00;;;2.30;;
56373;SDS011;58212;47.034;7.376;2023-07-20T06:47:20;5.20;;;3.35;;
56373;SDS011;58212;47.034;7.376;2023-07-20T06:49:47;4.78;;;2.70;;
56373;SDS011;58212;47.034;7.376;2023-07-20T06:52:13;3.70;;;2.30;;
56373;SDS011;58212;47.034;7.376;2023-07-20T06:54:40;2.65;;;2.30;;
56373;SDS011;58212;47.034;7.376;2023-07-20T06:57:07;3.47;;;2.05;;
56373;SDS011;58212;47.034;7.376;2023-07-20T06:59:35;4.20;;;2.00;;
56373;SDS011;58212;47.034;7.376;2023-07-20T07:02:01;2.20;;;1.80;;
56373;SDS011;58212;47.034;7.376;2023-07-20T07:04:28;4.43;;;2.40;;
56373;SDS011;58212;47.034;7.376;2023-07-20T07:06:55;2.85;;;2.00;;
56373;SDS011;58212;47.034;7.376;2023-07-20T07:09:21;3.33;;;2.55;;
56373;SDS011;58212;47.034;7.376;2023-07-20T07:11:49;3.28;;;2.45;;
56373;SDS011;58212;47.034;7.376;2023-07-20T07:14:19;5.07;;;2.28;;
56373;SDS011;58212;47.034;7.376;2023-07-20T07:16:47;2.92;;;2.38;;
56373;SDS011;58212;47.034;7.376;2023-07-20T07:19:14;2.90;;;2.03;;
56373;SDS011;58212;47.034;7.376;2023-07-20T07:21:41;2.20;;;1.90;;
56373;SDS011;58212;47.034;7.376;2023-07-20T07:24:07;2.88;;;2.17;;
56373;SDS011;58212;47.034;7.376;2023-07-20T07:26:35;3.92;;;1.80;;
56373;SDS011;58212;47.034;7.376;2023-07-20T07:29:02;2.60;;;1.45;;
56373;SDS011;58212;47.034;7.376;2023-07-20T07:31:29;2.83;;;1.90;;
56373;SDS011;58212;47.034;7.376;2023-07-20T07:33:57;3.08;;;2.03;;
56373;SDS011;58212;47.034;7.376;2023-07-20T07:36:24;4.68;;;1.80;;
56373;SDS011;58212;47.034;7.376;2023-07-20T07:38:50;2.67;;;1.98;;
56373;SDS011;58212;47.034;7.376;2023-07-20T07:41:17;4.13;;;1.85;;
56373;SDS011;58212;47.034;7.376;2023-07-20T07:43:44;3.10;;;1.80;;
56373;SDS011;58212;47.034;7.376;2023-07-20T07:46:10;5.78;;;2.00;;
56373;SDS011;58212;47.034;7.376;2023-07-20T07:48:37;3.40;;;2.17;;
56373;SDS011;58212;47.034;7.376;2023-07-20T07:51:05;2.58;;;1.92;;
56373;SDS011;58212;47.034;7.376;2023-07-20T07:53:32;3.20;;;2.03;;
56373;SDS011;58212;47.034;7.376;2023-07-20T07:56:00;2.75;;;2.00;;
56373;SDS011;58212;47.034;7.376;2023-07-20T07:58:28;2.35;;;1.90;;
56373;SDS011;58212;47.034;7.376;2023-07-20T08:00:54;3.33;;;1.75;;
56373;SDS011;58212;47.034;7.376;2023-07-20T08:03:21;2.90;;;1.83;;
56373;SDS011;58212;47.034;7.376;2023-07-20T08:05:49;2.30;;;1.85;;
56373;SDS011;58212;47.034;7.376;2023-07-20T08:08:17;2.10;;;1.90;;
56373;SDS011;58212;47.034;7.376;2023-07-20T08:10:44;2.83;;;1.65;;
56373;SDS011;58212;47.034;7.376;2023-07-20T08:13:10;3.03;;;1.70;;
56373;SDS011;58212;47.034;7.376;2023-07-20T08:15:37;3.67;;;1.70;;
56373;SDS011;58212;47.034;7.376;2023-07-20T08:18:04;3.22;;;1.77;;
56373;SDS011;58212;47.034;7.376;2023-07-20T08:20:32;1.52;;;1.42;;
56373;SDS011;58212;47.034;7.376;2023-07-20T08:23:01;2.80;;;1.80;;
56373;SDS011;58212;47.034;7.376;2023-07-20T08:25:29;1.88;;;1.38;;
56373;SDS011;58212;47.034;7.376;2023-07-20T08:27:55;3.75;;;1.65;;
56373;SDS011;58212;47.034;7.376;2023-07-20T08:30:22;2.67;;;1.75;;
56373;SDS011;58212;47.034;7.376;2023-07-20T08:32:49;2.00;;;1.75;;
56373;SDS011;58212;47.034;7.376;2023-07-20T08:35:16;2.67;;;1.88;;
56373;SDS011;58212;47.034;7.376;2023-07-20T08:37:43;1.95;;;1.67;;
56373;SDS011;58212;47.034;7.376;2023-07-20T08:40:11;2.67;;;2.00;;
56373;SDS011;58212;47.034;7.376;2023-07-20T08:42:41;2.30;;;2.10;;
56373;SDS011;58212;47.034;7.376;2023-07-20T08:45:10;3.88;;;2.00;;
56373;SDS011;58212;47.034;7.376;2023-07-20T08:47:39;2.30;;;2.03;;
56373;SDS011;58212;47.034;7.376;2023-07-20T08:50:09;3.15;;;1.70;;
56373;SDS011;58212;47.034;7.376;2023-07-20T08:52:37;3.40;;;1.48;;
56373;SDS011;58212;47.034;7.376;2023-07-20T08:55:04;1.92;;;1.73;;
56373;SDS011;58212;47.034;7.376;2023-07-20T08:57:32;2.15;;;1.67;;
56373;SDS011;58212;47.034;7.376;2023-07-20T09:00:01;4.35;;;2.00;;
56373;SDS011;58212;47.034;7.376;2023-07-20T09:02:32;2.53;;;1.60;;
56373;SDS011;58212;47.034;7.376;2023-07-20T09:05:05;2.88;;;1.52;;
56373;SDS011;58212;47.034;7.376;2023-07-20T09:07:32;1.85;;;1.50;;
56373;SDS011;58212;47.034;7.376;2023-07-20T09:10:01;4.70;;;2.28;;
56373;SDS011;58212;47.034;7.376;2023-07-20T09:12:31;2.38;;;1.40;;
56373;SDS011;58212;47.034;7.376;2023-07-20T09:14:57;2.58;;;1.40;;
56373;SDS011;58212;47.034;7.376;2023-07-20T09:17:26;3.50;;;1.77;;
56373;SDS011;58212;47.034;7.376;2023-07-20T09:19:53;2.28;;;1.38;;
56373;SDS011;58212;47.034;7.376;2023-07-20T09:22:21;1.20;;;1.10;;
56373;SDS011;58212;47.034;7.376;2023-07-20T09:24:47;1.95;;;1.50;;
56373;SDS011;58212;47.034;7.376;2023-07-20T09:27:14;1.83;;;1.40;;
56373;SDS011;58212;47.034;7.376;2023-07-20T09:29:48;1.60;;;1.30;;
56373;SDS011;58212;47.034;7.376;2023-07-20T09:32:17;2.00;;;1.40;;
56373;SDS011;58212;47.034;7.376;2023-07-20T09:34:47;2.45;;;1.20;;
56373;SDS011;58212;47.034;7.376;2023-07-20T09:37:19;2.28;;;1.23;;
56373;SDS011;58212;47.034;7.376;2023-07-20T09:39:46;2.05;;;1.40;;
56373;SDS011;58212;47.034;7.376;2023-07-20T09:42:14;2.42;;;1.45;;
56373;SDS011;58212;47.034;7.376;2023-07-20T09:44:43;2.28;;;1.48;;
56373;SDS011;58212;47.034;7.376;2023-07-20T09:47:10;3.30;;;1.40;;
56373;SDS011;58212;47.034;7.376;2023-07-20T09:49:39;2.67;;;1.48;;
56373;SDS011;58212;47.034;7.376;2023-07-20T09:52:08;3.42;;;2.45;;
56373;SDS011;58212;47.034;7.376;2023-07-20T09:54:35;4.40;;;1.45;;
56373;SDS011;58212;47.034;7.376;2023-07-20T09:57:05;3.05;;;2.03;;
56373;SDS011;58212;47.034;7.376;2023-07-20T09:59:33;2.72;;;1.75;;
56373;SDS011;58212;47.034;7.376;2023-07-20T10:02:00;2.10;;;1.90;;
56373;SDS011;58212;47.034;7.376;2023-07-20T10:04:31;1.90;;;1.80;;
56373;SDS011;58212;47.034;7.376;2023-07-20T10:07:01;5.07;;;2.10;;
56373;SDS011;58212;47.034;7.376;2023-07-20T10:09:37;5.20;;;2.00;;
56373;SDS011;58212;47.034;7.376;2023-07-20T10:12:06;2.67;;;1.73;;
56373;SDS011;58212;47.034;7.376;2023-07-20T10:14:35;1.90;;;1.70;;
56373;SDS011;58212;47.034;7.376;2023-07-20T10:17:07;2.60;;;2.03;;
56373;SDS011;58212;47.034;7.376;2023-07-20T10:19:39;3.78;;;1.63;;
56373;SDS011;58212;47.034;7.376;2023-07-20T10:22:12;1.60;;;1.50;;
56373;SDS011;58212;47.034;7.376;2023-07-20T10:24:45;2.72;;;1.70;;
56373;SDS011;58212;47.034;7.376;2023-07-20T10:27:12;2.25;;;1.60;;
56373;SDS011;58212;47.034;7.376;2023-07-20T10:29:39;2.03;;;1.45;;
56373;SDS011;58212;47.034;7.376;2023-07-20T10:32:07;8.10;;;2.10;;
56373;SDS011;58212;47.034;7.376;2023-07-20T10:34:35;3.25;;;1.40;;
56373;SDS011;58212;47.034;7.376;2023-07-20T10:37:02;3.20;;;1.48;;
56373;SDS011;58212;47.034;7.376;2023-07-20T10:39:30;2.78;;;1.30;;
56373;SDS011;58212;47.034;7.376;2023-07-20T10:42:02;1.60;;;1.50;;
56373;SDS011;58212;47.034;7.376;2023-07-20T10:44:33;2.53;;;1.55;;
56373;SDS011;58212;47.034;7.376;2023-07-20T10:47:00;3.25;;;1.63;;
56373;SDS011;58212;47.034;7.376;2023-07-20T10:49:28;2.15;;;1.65;;
56373;SDS011;58212;47.034;7.376;2023-07-20T10:51:56;1.45;;;1.35;;
56373;SDS011;58212;47.034;7.376;2023-07-20T10:54:34;4.78;;;1.38;;
56373;SDS011;58212;47.034;7.376;2023-07-20T10:59:50;1.77;;;1.60;;
56373;SDS011;58212;47.034;7.376;2023-07-20T11:02:18;2.15;;;1.50;;
56373;SDS011;58212;47.034;7.376;2023-07-20T11:04:46;2.38;;;1.67;;
56373;SDS011;58212;47.034;7.376;2023-07-20T11:07:17;2.45;;;1.45;;
56373;SDS011;58212;47.034;7.376;2023-07-20T11:09:44;5.15;;;1.67;;
56373;SDS011;58212;47.034;7.376;2023-07-20T11:12:11;3.00;;;1.63;;
56373;SDS011;58212;47.034;7.376;2023-07-20T11:14:41;2.20;;;1.60;;
56373;SDS011;58212;47.034;7.376;2023-07-20T11:17:12;1.40;;;1.30;;
56373;SDS011;58212;47.034;7.376;2023-07-20T11:19:39;1.90;;;1.50;;
56373;SDS011;58212;47.034;7.376;2023-07-20T11:22:06;2.28;;;1.48;;
56373;SDS011;58212;47.034;7.376;2023-07-20T11:24:34;2.78;;;1.85;;
56373;SDS011;58212;47.034;7.376;2023-07-20T11:27:01;5.70;;;1.60;;
56373;SDS011;58212;47.034;7.376;2023-07-20T11:29:28;2.00;;;1.42;;
56373;SDS011;58212;47.034;7.376;2023-07-20T11:31:56;1.48;;;1.23;;
56373;SDS011;58212;47.034;7.376;2023-07-20T11:34:24;3.42;;;1.55;;
56373;SDS011;58212;47.034;7.376;2023-07-20T11:36:52;3.85;;;1.40;;
56373;SDS011;58212;47.034;7.376;2023-07-20T11:39:21;1.65;;;1.55;;
56373;SDS011;58212;47.034;7.376;2023-07-20T11:41:50;2.15;;;1.52;;
56373;SDS011;58212;47.034;7.376;2023-07-20T11:44:17;3.70;;;1.65;;
56373;SDS011;58212;47.034;7.376;2023-07-20T11:46:44;2.05;;;1.67;;
56373;SDS011;58212;47.034;7.376;2023-07-20T11:49:12;2.40;;;1.60;;
56373;SDS011;58212;47.034;7.376;2023-07-20T11:51:40;1.88;;;1.40;;
56373;SDS011;58212;47.034;7.376;2023-07-20T11:54:07;1.50;;;1.40;;
56373;SDS011;58212;47.034;7.376;2023-07-20T11:56:35;3.20;;;1.52;;
56373;SDS011;58212;47.034;7.376;2023-07-20T11:59:02;2.08;;;1.33;;
56373;SDS011;58212;47.034;7.376;2023-07-20T12:01:29;1.83;;;1.27;;
56373;SDS011;58212;47.034;7.376;2023-07-20T12:03:59;2.00;;;1.48;;
56373;SDS011;58212;47.034;7.376;2023-07-20T12:06:28;1.67;;;1.33;;
56373;SDS011;58212;47.034;7.376;2023-07-20T12:08:57;2.05;;;1.27;;
56373;SDS011;58212;47.034;7.376;2023-07-20T12:11:34;2.60;;;1.40;;
56373;SDS011;58212;47.034;7.376;2023-07-20T12:14:02;2.80;;;1.80;;
56373;SDS011;58212;47.034;7.376;2023-07-20T12:16:30;1.73;;;1.20;;
56373;SDS011;58212;47.034;7.376;2023-07-20T12:19:00;1.77;;;1.40;;
56373;SDS011;58212;47.034;7.376;2023-07-20T12:21:29;2.28;;;1.42;;
56373;SDS011;58212;47.034;7.376;2023-07-20T12:23:55;2.58;;;1.48;;
56373;SDS011;58212;47.034;7.376;2023-07-20T12:26:23;1.33;;;1.23;;
56373;SDS011;58212;47.034;7.376;2023-07-20T12:28:50;1.85;;;1.40;;
56373;SDS011;58212;47.034;7.376;2023-07-20T12:31:17;1.35;;;1.25;;
56373;SDS011;58212;47.034;7.376;2023-07-20T12:33:46;3.03;;;1.25;;
56373;SDS011;58212;47.034;7.376;2023-07-20T12:36:13;3.30;;;1.05;;
56373;SDS011;58212;47.034;7.376;2023-07-20T12:38:41;1.10;;;1.00;;
56373;SDS011;58212;47.034;7.376;2023-07-20T12:41:09;2.20;;;1.63;;
56373;SDS011;58212;47.034;7.376;2023-07-20T12:43:39;1.25;;;1.10;;
56373;SDS011;58212;47.034;7.376;2023-07-20T12:46:06;1.27;;;1.17;;
56373;SDS011;58212;47.034;7.376;2023-07-20T12:48:33;4.88;;;1.25;;
56373;SDS011;58212;47.034;7.376;2023-07-20T12:50:59;2.90;;;1.40;;
56373;SDS011;58212;47.034;7.376;2023-07-20T12:53:26;2.13;;;1.10;;
56373;SDS011;58212;47.034;7.376;2023-07-20T12:55:54;1.75;;;1.23;;
56373;SDS011;58212;47.034;7.376;2023-07-20T12:58:21;2.97;;;1.20;;
56373;SDS011;58212;47.034;7.376;2023-07-20T13:00:48;1.77;;;1.20;;
56373;SDS011;58212;47.034;7.376;2023-07-20T13:03:15;3.15;;;1.20;;
56373;SDS011;58212;47.034;7.376;2023-07-20T13:05:44;1.60;;;1.27;;
56373;SDS011;58212;47.034;7.376;2023-07-20T13:08:11;1.33;;;1.10;;
56373;SDS011;58212;47.034;7.376;2023-07-20T13:10:37;1.58;;;1.38;;
56373;SDS011;58212;47.034;7.376;2023-07-20T13:13:06;1.30;;;1.20;;
56373;SDS011;58212;47.034;7.376;2023-07-20T13:15:40;1.73;;;1.10;;
56373;SDS011;58212;47.034;7.376;2023-07-20T13:18:09;2.38;;;1.23;;
56373;SDS011;58212;47.034;7.376;2023-07-20T13:20:35;2.70;;;1.40;;
56373;SDS011;58212;47.034;7.376;2023-07-20T13:23:02;1.63;;;1.30;;
56373;SDS011;58212;47.034;7.376;2023-07-20T13:25:29;5.45;;;1.85;;
56373;SDS011;58212;47.034;7.376;2023-07-20T13:27:55;3.80;;;1.40;;
56373;SDS011;58212;47.034;7.376;2023-07-20T13:30:23;1.40;;;1.20;;
56373;SDS011;58212;47.034;7.376;2023-07-20T13:32:50;1.67;;;1.58;;
56373;SDS011;58212;47.034;7.376;2023-07-20T13:35:17;1.60;;;1.48;;
56373;SDS011;58212;47.034;7.376;2023-07-20T13:37:44;1.40;;;1.17;;
56373;SDS011;58212;47.034;7.376;2023-07-20T13:40:11;2.38;;;1.30;;
56373;SDS011;58212;47.034;7.376;2023-07-20T13:42:38;1.70;;;1.52;;
56373;SDS011;58212;47.034;7.376;2023-07-20T13:45:05;3.75;;;1.50;;
56373;SDS011;58212;47.034;7.376;2023-07-20T13:47:34;1.95;;;1.40;;
56373;SDS011;58212;47.034;7.376;2023-07-20T13:50:01;5.32;;;1.90;;
56373;SDS011;58212;47.034;7.376;2023-07-20T13:52:27;2.05;;;1.48;;
56373;SDS011;58212;47.034;7.376;2023-07-20T13:54:54;2.58;;;1.58;;
56373;SDS011;58212;47.034;7.376;2023-07-20T13:57:21;2.20;;;1.50;;
56373;SDS011;58212;47.034;7.376;2023-07-20T13:59:47;3.00;;;1.42;;
56373;SDS011;58212;47.034;7.376;2023-07-20T14:02:14;2.83;;;1.48;;
56373;SDS011;58212;47.034;7.376;2023-07-20T14:04:42;2.65;;;1.40;;
56373;SDS011;58212;47.034;7.376;2023-07-20T14:07:09;3.03;;;1.40;;
56373;SDS011;58212;47.034;7.376;2023-07-20T14:09:36;4.30;;;1.52;;
56373;SDS011;58212;47.034;7.376;2023-07-20T14:12:03;5.13;;;1.60;;
56373;SDS011;58212;47.034;7.376;2023-07-20T14:14:30;2.60;;;1.50;;
56373;SDS011;58212;47.034;7.376;2023-07-20T14:16:57;6.13;;;1.88;;
56373;SDS011;58212;47.034;7.376;2023-07-20T14:19:24;4.97;;;1.83;;
56373;SDS011;58212;47.034;7.376;2023-07-20T14:21:52;2.63;;;1.50;;
56373;SDS011;58212;47.034;7.376;2023-07-20T14:24:20;3.33;;;1.45;;
56373;SDS011;58212;47.034;7.376;2023-07-20T14:26:46;2.65;;;1.63;;
56373;SDS011;58212;47.034;7.376;2023-07-20T14:29:14;1.77;;;1.40;;
56373;SDS011;58212;47.034;7.376;2023-07-20T14:31:40;1.55;;;1.45;;
56373;SDS011;58212;47.034;7.376;2023-07-20T14:34:07;2.88;;;1.65;;
56373;SDS011;58212;47.034;7.376;2023-07-20T14:36:35;3.22;;;1.67;;
56373;SDS011;58212;47.034;7.376;2023-07-20T14:39:03;2.97;;;1.40;;
56373;SDS011;58212;47.034;7.376;2023-07-20T14:41:30;6.28;;;2.03;;
56373;SDS011;58212;47.034;7.376;2023-07-20T14:43:57;2.08;;;1.48;;
56373;SDS011;58212;47.034;7.376;2023-07-20T14:46:23;1.50;;;1.40;;
56373;SDS011;58212;47.034;7.376;2023-07-20T14:48:50;1.95;;;1.70;;
56373;SDS011;58212;47.034;7.376;2023-07-20T14:51:17;3.10;;;1.63;;
56373;SDS011;58212;47.034;7.376;2023-07-20T14:53:44;4.50;;;1.60;;